Time;durP1;ratioP1;P1;durP2;ratioP2;P2;SDS_P1;SDS_P2;PMS_P1;PMS_P2;Temp;Humidity;BMP_temperature;BMP_pressure;BME280_temperature;BME280_humidity;BME280_pressure;Samples;Min_cycle;Max_cycle;Signal;HPM_P1;HPM_P2
2022/06/08 00:00:15;;;;;;;;;;;27.60;45.60;;;;;;5100454;28;1012;-36
2022/06/08 00:02:43;;;;;;;;;;;27.60;45.50;;;;;;5101175;28;1028;-38
2022/06/08 00:05:10;;;;;;;;;;;27.60;45.50;;;;;;5100154;28;990;-37
2022/06/08 00:07:38;;;;;;;;;;;27.60;45.50;;;;;;5100920;28;1008;-36
2022/06/08 00:10:07;;;;;;;;;;;27.50;45.50;;;;;;5101062;28;1020;-37
2022/06/08 00:12:34;;;;;;;;;;;27.60;45.60;;;;;;5101354;28;1044;-36
2022/06/08 00:15:00;;;;;;;;;;;27.60;45.50;;;;;;5100851;28;1015;-36
2022/06/08 00:17:27;;;;;;;;;;;27.70;45.20;;;;;;5100561;28;952;-37
2022/06/08 00:19:54;;;;;;;;;;;27.70;45.20;;;;;;5100328;28;1960;-38
2022/06/08 00:22:21;;;;;;;;;;;27.70;45.30;;;;;;5099825;28;1315;-36
2022/06/08 00:24:48;;;;;;;;;;;27.60;45.20;;;;;;5099326;28;976;-36
2022/06/08 00:27:16;;;;;;;;;;;27.70;45.10;;;;;;5099544;28;906;-37
2022/06/08 00:29:43;;;;;;;;;;;27.70;45.10;;;;;;5099577;28;1119;-36
2022/06/08 00:32:10;;;;;;;;;;;27.70;45.20;;;;;;5100024;28;1007;-36
2022/06/08 00:34:36;;;;;;;;;;;27.60;45.40;;;;;;5100246;28;929;-38
2022/06/08 00:37:04;;;;;;;;;;;27.60;45.20;;;;;;5099850;28;1970;-37
2022/06/08 00:39:30;;;;;;;;;;;27.50;45.40;;;;;;5099646;28;1985;-36
2022/06/08 00:41:59;;;;;;;;;;;27.50;45.30;;;;;;5099745;28;968;-38
2022/06/08 00:44:29;;;;;;;;;;;27.50;45.70;;;;;;5099967;28;856;-37
2022/06/08 00:46:55;;;;;;;;;;;27.60;45.40;;;;;;5099866;28;1014;-36
2022/06/08 00:49:24;;;;;;;;;;;27.70;45.10;;;;;;5099498;28;937;-36
2022/06/08 00:51:51;;;;;;;;;;;27.70;45.30;;;;;;5099269;28;996;-36
2022/06/08 00:54:22;;;;;;;;;;;27.70;45.00;;;;;;5099265;28;889;-37
2022/06/08 00:56:51;;;;;;;;;;;27.70;45.20;;;;;;5098947;28;1201;-37
2022/06/08 00:59:18;;;;;;;;;;;27.70;45.10;;;;;;5098925;28;1925;-36
2022/06/08 01:01:46;;;;;;;;;;;27.80;44.90;;;;;;5099326;28;1026;-37
2022/06/08 01:04:14;;;;;;;;;;;27.70;44.80;;;;;;5099663;28;932;-36
2022/06/08 01:06:41;;;;;;;;;;;27.80;44.80;;;;;;5099224;28;872;-38
2022/06/08 01:09:13;;;;;;;;;;;27.60;45.10;;;;;;5099001;28;987;-36
2022/06/08 01:11:43;;;;;;;;;;;27.70;45.10;;;;;;5099163;28;976;-36
2022/06/08 01:14:11;;;;;;;;;;;27.70;45.10;;;;;;5099229;28;1174;-37
2022/06/08 01:16:39;;;;;;;;;;;27.60;45.00;;;;;;5098544;28;928;-36
2022/06/08 01:19:07;;;;;;;;;;;27.70;45.00;;;;;;5098598;28;1981;-36
2022/06/08 01:22:01;;;;;;;;;;;27.60;45.10;;;;;;5098731;28;1023;-37
2022/06/08 01:24:29;;;;;;;;;;;27.60;45.10;;;;;;5061904;28;1139;-36
2022/06/08 01:27:26;;;;;;;;;;;27.70;45.00;;;;;;5098335;28;956;-37
2022/06/08 01:29:58;;;;;;;;;;;27.70;44.80;;;;;;5036441;28;930;-38
2022/06/08 01:32:28;;;;;;;;;;;27.70;44.80;;;;;;5086799;28;977;-37
2022/06/08 01:35:03;;;;;;;;;;;27.60;45.00;;;;;;5098286;28;956;-37
2022/06/08 01:37:35;;;;;;;;;;;27.70;45.10;;;;;;5098910;28;1013;-37
2022/06/08 01:40:32;;;;;;;;;;;27.60;45.20;;;;;;5099121;28;1902;-38
2022/06/08 01:43:06;;;;;;;;;;;27.60;45.10;;;;;;5037185;28;1020;-38
2022/06/08 01:45:40;;;;;;;;;;;27.70;45.00;;;;;;5086790;28;1121;-37
2022/06/08 01:48:21;;;;;;;;;;;27.70;44.70;;;;;;5098854;28;1006;-37
2022/06/08 01:50:55;;;;;;;;;;;27.70;45.00;;;;;;5095955;28;1854;-38
2022/06/08 01:53:30;;;;;;;;;;;27.60;45.00;;;;;;5098757;28;985;-36
2022/06/08 01:55:59;;;;;;;;;;;27.60;45.10;;;;;;5097898;28;1012;-36
2022/06/08 01:58:29;;;;;;;;;;;27.60;45.00;;;;;;5097502;28;1914;-38
2022/06/08 02:00:59;;;;;;;;;;;27.60;45.10;;;;;;5098027;28;959;-37
2022/06/08 02:03:29;;;;;;;;;;;27.60;45.10;;;;;;5098214;28;993;-37
2022/06/08 02:05:58;;;;;;;;;;;27.60;45.10;;;;;;5098223;28;963;-37
2022/06/08 02:08:30;;;;;;;;;;;27.70;44.90;;;;;;5098666;28;1000;-37
2022/06/08 02:11:00;;;;;;;;;;;27.60;45.00;;;;;;5098453;28;945;-38
2022/06/08 02:13:31;;;;;;;;;;;27.60;45.10;;;;;;5097944;28;1208;-37
2022/06/08 02:19:13;;;;;;;;;;;27.70;44.80;;;;;;5097430;28;1902;-37
2022/06/08 02:21:42;;;;;;;;;;;27.60;45.10;;;;;;5100791;28;928;-37
2022/06/08 02:24:12;;;;;;;;;;;27.50;45.20;;;;;;5104950;28;1016;-38
2022/06/08 02:26:40;;;;;;;;;;;27.50;45.30;;;;;;5103918;28;1037;-37
2022/06/08 02:29:11;;;;;;;;;;;27.40;45.30;;;;;;5104540;28;1026;-36
2022/06/08 02:31:40;;;;;;;;;;;27.40;45.40;;;;;;5104981;28;873;-38
2022/06/08 02:36:57;;;;;;;;;;;27.50;46.30;;;;;;5104619;28;626;-37
2022/06/08 02:39:27;;;;;;;;;;;27.50;45.20;;;;;;5104384;28;1980;-37
2022/06/08 02:41:56;;;;;;;;;;;27.50;45.20;;;;;;5104292;28;1770;-37
2022/06/08 02:44:25;;;;;;;;;;;27.40;45.40;;;;;;5104488;28;976;-37
2022/06/08 02:46:55;;;;;;;;;;;27.40;45.40;;;;;;5104685;28;931;-37
2022/06/08 02:49:22;;;;;;;;;;;27.40;45.50;;;;;;5104979;28;1010;-37
2022/06/08 02:51:50;;;;;;;;;;;27.50;45.40;;;;;;5104235;28;981;-38
2022/06/08 02:54:18;;;;;;;;;;;27.50;45.30;;;;;;5104133;28;967;-36
2022/06/08 02:56:52;;;;;;;;;;;27.50;45.30;;;;;;5104652;28;897;-37
2022/06/08 02:59:22;;;;;;;;;;;27.50;45.30;;;;;;5104116;28;1988;-38
2022/06/08 03:01:59;;;;;;;;;;;27.50;45.30;;;;;;5103935;28;881;-36
2022/06/08 03:04:30;;;;;;;;;;;27.40;45.20;;;;;;5103770;28;944;-36
2022/06/08 03:06:59;;;;;;;;;;;27.50;45.10;;;;;;5104479;28;1011;-37
2022/06/08 03:09:26;;;;;;;;;;;27.50;45.30;;;;;;5104133;28;1008;-36
2022/06/08 03:11:54;;;;;;;;;;;27.50;45.20;;;;;;5103704;28;940;-37
2022/06/08 03:14:21;;;;;;;;;;;27.50;45.30;;;;;;5103579;28;1099;-38
2022/06/08 03:16:56;;;;;;;;;;;27.40;45.40;;;;;;5103228;28;944;-37
2022/06/08 03:19:23;;;;;;;;;;;27.40;45.30;;;;;;5102749;28;1993;-36
2022/06/08 03:21:50;;;;;;;;;;;27.40;45.40;;;;;;5102984;28;928;-36
2022/06/08 03:24:17;;;;;;;;;;;27.40;45.30;;;;;;5103422;28;1043;-37
2022/06/08 03:26:45;;;;;;;;;;;27.50;45.20;;;;;;5103353;28;832;-37
2022/06/08 03:29:12;;;;;;;;;;;27.40;45.20;;;;;;5103327;28;1006;-39
2022/06/08 03:31:39;;;;;;;;;;;27.40;45.30;;;;;;5103604;28;877;-36
2022/06/08 03:34:07;;;;;;;;;;;27.40;45.30;;;;;;5099741;28;974;-37
2022/06/08 03:36:34;;;;;;;;;;;27.40;45.20;;;;;;5100273;28;920;-37
2022/06/08 03:39:00;;;;;;;;;;;27.40;45.40;;;;;;5101213;28;1975;-37
2022/06/08 03:41:27;;;;;;;;;;;27.40;45.20;;;;;;5100633;28;983;-36
2022/06/08 03:43:54;;;;;;;;;;;27.40;45.20;;;;;;5100955;28;989;-37
2022/06/08 03:46:21;;;;;;;;;;;27.50;45.20;;;;;;5100477;28;1003;-37
2022/06/08 03:48:48;;;;;;;;;;;27.40;45.20;;;;;;5100291;28;1081;-36
2022/06/08 03:51:17;;;;;;;;;;;27.40;45.20;;;;;;5100682;28;964;-37
2022/06/08 03:53:46;;;;;;;;;;;27.50;45.00;;;;;;5099820;28;1820;-37
2022/06/08 03:56:14;;;;;;;;;;;27.50;45.20;;;;;;5100242;28;1837;-36
2022/06/08 03:58:41;;;;;;;;;;;27.40;45.20;;;;;;5100304;28;983;-36
2022/06/08 04:01:08;;;;;;;;;;;27.50;45.20;;;;;;5099534;28;1974;-36
2022/06/08 04:03:35;;;;;;;;;;;27.40;45.20;;;;;;5099419;28;969;-38
2022/06/08 04:06:01;;;;;;;;;;;27.40;45.30;;;;;;5100119;28;1040;-36
2022/06/08 04:08:31;;;;;;;;;;;27.40;45.30;;;;;;5099801;28;1008;-37
2022/06/08 04:10:58;;;;;;;;;;;27.40;45.10;;;;;;5099776;28;986;-37
2022/06/08 04:13:25;;;;;;;;;;;27.40;45.20;;;;;;5099162;28;1096;-37
2022/06/08 04:15:52;;;;;;;;;;;27.40;45.40;;;;;;5098793;28;1022;-37
2022/06/08 04:18:19;;;;;;;;;;;27.40;45.20;;;;;;5097977;28;924;-36
2022/06/08 04:20:48;;;;;;;;;;;27.40;45.40;;;;;;5097091;28;1980;-36
2022/06/08 04:23:15;;;;;;;;;;;27.40;45.30;;;;;;5097670;28;948;-36
2022/06/08 04:25:43;;;;;;;;;;;27.40;45.30;;;;;;5096721;28;995;-36
2022/06/08 04:28:10;;;;;;;;;;;27.30;45.30;;;;;;5097443;28;1208;-36
2022/06/08 04:30:36;;;;;;;;;;;27.40;45.40;;;;;;5097283;28;980;-38
2022/06/08 04:33:03;;;;;;;;;;;27.40;45.50;;;;;;5097470;28;952;-37
2022/06/08 04:35:30;;;;;;;;;;;27.40;45.60;;;;;;5097911;28;997;-37
2022/06/08 04:37:57;;;;;;;;;;;27.40;45.30;;;;;;5097110;28;988;-38
2022/06/08 04:40:24;;;;;;;;;;;27.30;45.40;;;;;;5095817;28;1914;-37
2022/06/08 04:42:52;;;;;;;;;;;27.30;45.50;;;;;;5097402;28;980;-36
2022/06/08 04:45:19;;;;;;;;;;;27.30;45.40;;;;;;5097150;28;999;-36
2022/06/08 04:47:46;;;;;;;;;;;27.30;45.30;;;;;;5099290;28;936;-39
2022/06/08 04:50:12;;;;;;;;;;;27.40;45.40;;;;;;5098837;28;948;-38
2022/06/08 04:52:39;;;;;;;;;;;27.30;45.30;;;;;;5098194;28;985;-36
2022/06/08 04:55:08;;;;;;;;;;;27.30;46.60;;;;;;5098143;28;900;-38
2022/06/08 04:57:37;;;;;;;;;;;27.40;45.40;;;;;;5098338;28;959;-36
2022/06/08 05:00:07;;;;;;;;;;;27.40;45.30;;;;;;5098167;28;1979;-36
2022/06/08 05:02:48;;;;;;;;;;;27.30;45.40;;;;;;5097643;28;980;-37
2022/06/08 05:05:16;;;;;;;;;;;27.30;45.50;;;;;;5096285;28;1028;-37
2022/06/08 05:07:43;;;;;;;;;;;27.40;45.00;;;;;;5096871;28;988;-38
2022/06/08 05:10:10;;;;;;;;;;;27.40;45.30;;;;;;5096990;28;928;-38
2022/06/08 05:12:37;;;;;;;;;;;27.40;45.20;;;;;;5096652;28;1024;-36
2022/06/08 05:15:07;;;;;;;;;;;27.40;45.40;;;;;;5095103;28;1030;-43
2022/06/08 05:17:34;;;;;;;;;;;27.30;45.40;;;;;;5095566;28;948;-36
2022/06/08 05:20:00;;;;;;;;;;;27.40;45.20;;;;;;5095432;28;1980;-37
2022/06/08 05:22:27;;;;;;;;;;;27.40;45.20;;;;;;5094899;28;925;-37
2022/06/08 05:24:55;;;;;;;;;;;27.30;45.30;;;;;;5095167;28;937;-36
2022/06/08 05:27:21;;;;;;;;;;;27.30;45.50;;;;;;5094905;28;861;-37
2022/06/08 05:29:48;;;;;;;;;;;27.20;45.60;;;;;;5092206;28;883;-36
2022/06/08 05:32:17;;;;;;;;;;;27.30;45.60;;;;;;5093761;28;940;-37
2022/06/08 05:34:43;;;;;;;;;;;27.20;45.70;;;;;;5093750;28;893;-37
2022/06/08 05:37:10;;;;;;;;;;;27.20;45.80;;;;;;5095179;28;1838;-37
2022/06/08 05:39:37;;;;;;;;;;;27.30;45.50;;;;;;5095530;28;1910;-37
2022/06/08 05:42:04;;;;;;;;;;;27.30;45.50;;;;;;5095231;28;968;-37
2022/06/08 05:44:32;;;;;;;;;;;27.30;45.70;;;;;;5095750;28;1794;-37
2022/06/08 05:46:59;;;;;;;;;;;27.30;45.50;;;;;;5094643;28;1104;-37
2022/06/08 05:49:27;;;;;;;;;;;27.30;45.40;;;;;;5094196;28;1011;-37
2022/06/08 05:51:54;;;;;;;;;;;27.30;46.50;;;;;;5095856;28;889;-38
2022/06/08 05:54:21;;;;;;;;;;;27.40;45.40;;;;;;5094199;28;975;-37
2022/06/08 05:56:47;;;;;;;;;;;27.30;45.50;;;;;;5093765;28;987;-38
2022/06/08 05:59:14;;;;;;;;;;;27.40;45.50;;;;;;5094855;28;1008;-38
2022/06/08 06:01:41;;;;;;;;;;;27.30;45.50;;;;;;5094336;28;1996;-37
2022/06/08 06:04:08;;;;;;;;;;;27.30;45.50;;;;;;5094296;28;1025;-36
2022/06/08 06:06:38;;;;;;;;;;;27.40;45.40;;;;;;5093970;28;960;-37
2022/06/08 06:09:05;;;;;;;;;;;27.40;45.50;;;;;;5093598;28;1015;-37
2022/06/08 06:11:32;;;;;;;;;;;27.50;45.30;;;;;;5093437;28;967;-37
2022/06/08 06:13:59;;;;;;;;;;;27.50;45.20;;;;;;5092520;28;1130;-38
2022/06/08 06:16:26;;;;;;;;;;;27.40;45.20;;;;;;5093079;28;1031;-37
2022/06/08 06:18:52;;;;;;;;;;;27.50;45.50;;;;;;5094763;28;969;-37
2022/06/08 06:21:21;;;;;;;;;;;27.40;45.50;;;;;;5095484;28;1906;-37
2022/06/08 06:23:49;;;;;;;;;;;27.40;45.40;;;;;;5095734;28;1011;-37
2022/06/08 06:26:16;;;;;;;;;;;27.40;45.40;;;;;;5096159;28;960;-37
2022/06/08 06:28:42;;;;;;;;;;;27.40;45.20;;;;;;5096370;28;989;-37
2022/06/08 06:31:09;;;;;;;;;;;27.40;45.40;;;;;;5095639;28;1012;-37
2022/06/08 06:33:36;;;;;;;;;;;27.40;45.40;;;;;;5096112;28;925;-37
2022/06/08 06:36:03;;;;;;;;;;;27.50;45.30;;;;;;5095776;28;947;-37
2022/06/08 06:38:30;;;;;;;;;;;27.60;45.20;;;;;;5095281;28;1023;-37
2022/06/08 06:40:58;;;;;;;;;;;27.60;45.10;;;;;;5094173;28;1909;-39
2022/06/08 06:43:25;;;;;;;;;;;27.70;45.20;;;;;;5093411;28;1027;-39
2022/06/08 06:45:52;;;;;;;;;;;27.60;45.00;;;;;;5093785;28;1483;-39
2022/06/08 06:48:18;;;;;;;;;;;27.60;44.90;;;;;;5094970;28;1000;-37
2022/06/08 06:50:45;;;;;;;;;;;27.70;45.20;;;;;;5095745;28;1003;-37
2022/06/08 06:53:13;;;;;;;;;;;27.70;44.80;;;;;;5094939;28;992;-37
2022/06/08 06:55:40;;;;;;;;;;;27.70;45.00;;;;;;5096355;28;999;-37
2022/06/08 06:58:08;;;;;;;;;;;27.70;45.00;;;;;;5094264;28;948;-37
2022/06/08 07:00:35;;;;;;;;;;;27.80;44.90;;;;;;5094310;28;1918;-37
2022/06/08 07:03:01;;;;;;;;;;;27.70;44.70;;;;;;5094403;28;1229;-37
2022/06/08 07:05:30;;;;;;;;;;;27.80;44.80;;;;;;5095456;28;972;-37
2022/06/08 07:07:57;;;;;;;;;;;27.90;44.60;;;;;;5095769;28;990;-38
2022/06/08 07:10:24;;;;;;;;;;;27.80;44.50;;;;;;5097791;28;971;-37
2022/06/08 07:12:50;;;;;;;;;;;27.90;44.40;;;;;;5097549;28;1004;-37
2022/06/08 07:15:19;;;;;;;;;;;27.80;44.30;;;;;;5097626;28;1031;-37
2022/06/08 07:17:46;;;;;;;;;;;27.80;44.50;;;;;;5097201;28;943;-37
2022/06/08 07:20:14;;;;;;;;;;;28.00;44.30;;;;;;5097091;28;1973;-37
2022/06/08 07:22:40;;;;;;;;;;;28.00;43.80;;;;;;5097566;28;1776;-38
2022/06/08 07:25:08;;;;;;;;;;;28.00;44.20;;;;;;5095887;28;993;-37
2022/06/08 07:27:36;;;;;;;;;;;28.00;44.00;;;;;;5096644;28;1838;-37
2022/06/08 07:30:02;;;;;;;;;;;28.00;44.10;;;;;;5096289;28;981;-37
2022/06/08 07:32:31;;;;;;;;;;;28.00;44.10;;;;;;5096172;28;996;-37
2022/06/08 07:34:57;;;;;;;;;;;28.00;44.00;;;;;;5096674;28;961;-37
2022/06/08 07:37:25;;;;;;;;;;;28.00;44.00;;;;;;5095181;28;1755;-37
2022/06/08 07:39:52;;;;;;;;;;;27.90;44.10;;;;;;5098457;28;984;-37
2022/06/08 07:42:19;;;;;;;;;;;27.90;44.30;;;;;;5097611;28;1957;-38
2022/06/08 07:44:46;;;;;;;;;;;27.80;44.40;;;;;;5095992;28;989;-37
2022/06/08 07:47:13;;;;;;;;;;;27.80;44.60;;;;;;5095848;28;932;-37
2022/06/08 07:49:41;;;;;;;;;;;27.80;44.40;;;;;;5096714;28;984;-37
2022/06/08 07:52:09;;;;;;;;;;;27.90;44.30;;;;;;5096150;28;869;-37
2022/06/08 07:54:36;;;;;;;;;;;27.90;44.30;;;;;;5096061;28;1239;-37
2022/06/08 07:57:03;;;;;;;;;;;27.80;44.40;;;;;;5096120;28;968;-37
2022/06/08 07:59:30;;;;;;;;;;;27.90;44.30;;;;;;5095375;28;1008;-37
2022/06/08 08:01:58;;;;;;;;;;;27.80;44.50;;;;;;5096830;28;1980;-37
2022/06/08 08:04:24;;;;;;;;;;;27.70;44.50;;;;;;5095016;28;880;-37
2022/06/08 08:06:52;;;;;;;;;;;27.70;44.50;;;;;;5096452;28;1015;-37
2022/06/08 08:09:22;;;;;;;;;;;27.80;44.50;;;;;;5096239;28;947;-37
2022/06/08 08:11:50;;;;;;;;;;;27.90;44.30;;;;;;5096529;28;933;-37
2022/06/08 08:14:17;;;;;;;;;;;28.00;44.30;;;;;;5094783;28;1043;-37
2022/06/08 08:16:44;;;;;;;;;;;27.90;44.00;;;;;;5096058;28;936;-37
2022/06/08 08:19:12;;;;;;;;;;;28.00;44.00;;;;;;5094944;28;960;-37
2022/06/08 08:21:38;;;;;;;;;;;28.00;43.90;;;;;;5095578;28;1902;-37
2022/06/08 08:24:07;;;;;;;;;;;27.90;44.20;;;;;;5094999;28;928;-38
2022/06/08 08:26:34;;;;;;;;;;;28.00;44.00;;;;;;5096267;28;992;-37
2022/06/08 08:29:01;;;;;;;;;;;28.00;44.00;;;;;;5095782;28;1075;-37
2022/06/08 08:31:27;;;;;;;;;;;28.10;43.70;;;;;;5095843;28;975;-37
2022/06/08 08:33:54;;;;;;;;;;;28.00;43.80;;;;;;5094768;28;967;-37
2022/06/08 08:36:21;;;;;;;;;;;28.00;44.00;;;;;;5095643;28;972;-37
2022/06/08 08:38:48;;;;;;;;;;;27.90;44.10;;;;;;5095710;28;1020;-37
2022/06/08 08:44:04;;;;;;;;;;;27.90;44.30;;;;;;5095582;28;986;-37
2022/06/08 08:46:38;;;;;;;;;;;27.90;44.20;;;;;;5096206;28;957;-37
2022/06/08 08:49:10;;;;;;;;;;;28.00;44.20;;;;;;5096248;28;1021;-37
2022/06/08 08:51:42;;;;;;;;;;;28.00;44.00;;;;;;5096249;28;932;-37
2022/06/08 08:54:17;;;;;;;;;;;28.00;44.20;;;;;;5095305;28;1018;-37
2022/06/08 08:56:45;;;;;;;;;;;28.10;44.00;;;;;;5094688;28;943;-37
2022/06/08 08:59:13;;;;;;;;;;;28.10;44.00;;;;;;5095377;28;1328;-37
2022/06/08 09:01:40;;;;;;;;;;;28.30;43.60;;;;;;5093682;28;1905;-37
2022/06/08 09:04:14;;;;;;;;;;;28.20;43.40;;;;;;5094431;28;1032;-37
2022/06/08 09:06:41;;;;;;;;;;;28.00;43.80;;;;;;5093899;28;952;-37
2022/06/08 09:09:12;;;;;;;;;;;28.00;43.80;;;;;;5093665;28;1870;-37
2022/06/08 09:11:40;;;;;;;;;;;28.10;43.90;;;;;;5094661;28;1022;-37
2022/06/08 09:14:12;;;;;;;;;;;28.10;43.70;;;;;;5093710;28;1004;-37
2022/06/08 09:16:39;;;;;;;;;;;28.10;43.90;;;;;;5093391;28;1035;-38
2022/06/08 09:19:30;;;;;;;;;;;28.10;43.90;;;;;;5095034;28;896;-37
2022/06/08 09:22:00;;;;;;;;;;;28.00;43.90;;;;;;5073862;28;1975;-37
2022/06/08 09:24:30;;;;;;;;;;;28.00;43.90;;;;;;5095012;28;1009;-37
2022/06/08 09:27:06;;;;;;;;;;;28.10;43.90;;;;;;5095489;28;925;-37
2022/06/08 09:29:47;;;;;;;;;;;28.00;43.90;;;;;;5095293;28;936;-37
2022/06/08 09:32:22;;;;;;;;;;;27.90;44.00;;;;;;5095215;28;996;-36
2022/06/08 09:34:54;;;;;;;;;;;28.00;44.10;;;;;;5095703;28;892;-37
2022/06/08 09:37:23;;;;;;;;;;;28.00;44.30;;;;;;5095311;28;988;-38
2022/06/08 09:39:50;;;;;;;;;;;27.90;44.20;;;;;;5095409;28;958;-37
2022/06/08 09:42:26;;;;;;;;;;;27.90;44.40;;;;;;5095157;28;1898;-37
2022/06/08 09:44:58;;;;;;;;;;;27.90;44.40;;;;;;5096845;28;927;-37
2022/06/08 09:53:07;;;;;;;;;;;27.90;44.20;;;;;;5093883;28;626;-37
2022/06/08 09:55:45;;;;;;;;;;;27.90;44.20;;;;;;5095235;28;980;-37
2022/06/08 09:58:18;;;;;;;;;;;27.90;44.30;;;;;;5092884;28;944;-37
2022/06/08 10:00:50;;;;;;;;;;;28.00;44.10;;;;;;5092421;28;2001;-37
2022/06/08 10:03:35;;;;;;;;;;;28.00;44.00;;;;;;5091887;28;1943;-37
2022/06/08 10:06:07;;;;;;;;;;;28.10;44.10;;;;;;5095241;28;1002;-37
2022/06/08 10:08:39;;;;;;;;;;;28.10;43.90;;;;;;5095707;28;968;-37
2022/06/08 10:11:34;;;;;;;;;;;28.10;43.90;;;;;;5093415;28;974;-37
2022/06/08 10:14:01;;;;;;;;;;;28.30;43.80;;;;;;5092823;28;1250;-37
2022/06/08 10:16:32;;;;;;;;;;;28.20;43.80;;;;;;5092741;28;984;-37
2022/06/08 10:19:05;;;;;;;;;;;28.10;43.90;;;;;;5091502;28;1367;-37
2022/06/08 10:21:33;;;;;;;;;;;28.10;44.10;;;;;;5092765;28;1997;-37
2022/06/08 10:24:02;;;;;;;;;;;28.00;44.10;;;;;;5092942;28;981;-37
2022/06/08 10:26:30;;;;;;;;;;;28.00;44.20;;;;;;5092263;28;876;-37
2022/06/08 10:29:00;;;;;;;;;;;28.00;44.00;;;;;;5092615;28;984;-37
2022/06/08 10:31:32;;;;;;;;;;;28.00;44.20;;;;;;5092819;28;936;-37
2022/06/08 10:34:03;;;;;;;;;;;28.00;44.00;;;;;;5093143;28;1035;-37
2022/06/08 10:36:31;;;;;;;;;;;28.00;44.00;;;;;;5093052;28;929;-37
2022/06/08 10:39:00;;;;;;;;;;;28.10;43.90;;;;;;5093721;28;932;-37
2022/06/08 10:44:29;;;;;;;;;;;28.00;44.30;;;;;;5097149;28;932;-37
2022/06/08 10:47:08;;;;;;;;;;;28.00;44.20;;;;;;5096515;28;940;-38
2022/06/08 10:49:52;;;;;;;;;;;28.00;44.40;;;;;;5096507;28;984;-37
2022/06/08 10:52:27;;;;;;;;;;;27.90;44.30;;;;;;5097292;28;972;-37
2022/06/08 10:54:55;;;;;;;;;;;28.10;44.30;;;;;;5096982;28;893;-37
2022/06/08 10:57:31;;;;;;;;;;;28.00;44.30;;;;;;5095662;28;980;-37
2022/06/08 11:00:13;;;;;;;;;;;28.00;44.10;;;;;;5095752;28;1046;-37
2022/06/08 11:02:44;;;;;;;;;;;28.00;44.30;;;;;;5093326;28;1905;-37
2022/06/08 11:05:19;;;;;;;;;;;28.00;44.20;;;;;;5094829;28;1009;-37
2022/06/08 11:08:05;;;;;;;;;;;28.00;44.50;;;;;;5095885;28;1039;-39
2022/06/08 11:10:48;;;;;;;;;;;28.20;43.90;;;;;;5095398;28;1019;-37
2022/06/08 11:13:24;;;;;;;;;;;28.20;44.00;;;;;;5095323;28;1656;-37
2022/06/08 11:15:54;;;;;;;;;;;28.20;44.00;;;;;;5095553;28;1121;-37
2022/06/08 11:18:31;;;;;;;;;;;28.20;43.90;;;;;;5094921;28;963;-37
2022/06/08 11:21:18;;;;;;;;;;;28.30;43.80;;;;;;5095210;28;958;-37
2022/06/08 11:23:48;;;;;;;;;;;28.20;44.00;;;;;;5094469;28;984;-37
2022/06/08 11:26:25;;;;;;;;;;;28.20;43.90;;;;;;5095858;28;939;-37
2022/06/08 11:28:53;;;;;;;;;;;28.30;43.80;;;;;;5096325;28;936;-37
2022/06/08 11:31:35;;;;;;;;;;;28.50;43.40;;;;;;5095842;28;885;-37
2022/06/08 11:34:12;;;;;;;;;;;28.50;43.50;;;;;;5094714;28;1276;-37
2022/06/08 11:36:49;;;;;;;;;;;28.50;43.40;;;;;;5094322;28;1003;-37
2022/06/08 11:39:19;;;;;;;;;;;28.50;43.20;;;;;;5095070;28;986;-37
2022/06/08 11:41:56;;;;;;;;;;;28.50;43.20;;;;;;5095783;28;1921;-37
2022/06/08 11:44:23;;;;;;;;;;;28.40;43.40;;;;;;5096041;28;1635;-37
2022/06/08 11:46:53;;;;;;;;;;;28.50;43.10;;;;;;5094419;28;1755;-37
2022/06/08 11:49:28;;;;;;;;;;;28.40;43.40;;;;;;5095232;28;1020;-37
2022/06/08 11:51:55;;;;;;;;;;;28.40;43.40;;;;;;5096196;28;853;-37
2022/06/08 11:54:25;;;;;;;;;;;28.40;43.40;;;;;;5095046;28;996;-37
2022/06/08 11:57:02;;;;;;;;;;;28.40;43.30;;;;;;5095623;28;992;-37
2022/06/08 11:59:29;;;;;;;;;;;28.40;44.50;;;;;;5094427;28;976;-37
2022/06/08 12:02:00;;;;;;;;;;;28.30;43.50;;;;;;5094072;28;1907;-37
2022/06/08 12:04:30;;;;;;;;;;;28.40;43.30;;;;;;5095207;28;1006;-38
2022/06/08 12:06:58;;;;;;;;;;;28.40;43.50;;;;;;5094819;28;945;-37
2022/06/08 12:09:26;;;;;;;;;;;28.40;43.30;;;;;;5094796;28;984;-37
2022/06/08 12:11:54;;;;;;;;;;;28.50;43.20;;;;;;5094686;28;1007;-37
2022/06/08 12:14:25;;;;;;;;;;;28.50;43.20;;;;;;5094898;28;1159;-38
2022/06/08 12:16:54;;;;;;;;;;;28.50;43.40;;;;;;5096843;28;947;-39
2022/06/08 12:19:21;;;;;;;;;;;28.30;43.60;;;;;;5096507;28;1007;-38
2022/06/08 12:21:50;;;;;;;;;;;28.30;43.70;;;;;;5096423;28;1980;-38
2022/06/08 12:24:22;;;;;;;;;;;28.40;43.50;;;;;;5096879;28;936;-38
2022/06/08 12:26:55;;;;;;;;;;;28.50;43.40;;;;;;5096924;28;985;-39
2022/06/08 12:29:25;;;;;;;;;;;28.50;43.20;;;;;;5096867;28;985;-38
2022/06/08 12:31:59;;;;;;;;;;;28.40;43.20;;;;;;5096503;28;1015;-38
2022/06/08 12:34:27;;;;;;;;;;;28.50;43.20;;;;;;5097896;28;960;-38
2022/06/08 12:36:55;;;;;;;;;;;28.50;43.20;;;;;;5098314;28;1048;-38
2022/06/08 12:39:27;;;;;;;;;;;28.60;43.00;;;;;;5096619;28;991;-37
2022/06/08 12:41:55;;;;;;;;;;;28.40;43.10;;;;;;5094849;28;1897;-37
2022/06/08 12:44:23;;;;;;;;;;;28.60;43.10;;;;;;5096016;28;1015;-38
2022/06/08 12:46:53;;;;;;;;;;;28.50;43.10;;;;;;5095099;28;972;-38
2022/06/08 12:49:21;;;;;;;;;;;28.30;43.50;;;;;;5095319;28;1106;-37
2022/06/08 12:51:49;;;;;;;;;;;28.50;43.20;;;;;;5095188;28;1528;-38
2022/06/08 12:54:20;;;;;;;;;;;28.40;43.50;;;;;;5094260;28;1031;-38
2022/06/08 12:56:48;;;;;;;;;;;28.30;43.60;;;;;;5094758;28;981;-38
2022/06/08 12:59:15;;;;;;;;;;;28.30;43.50;;;;;;5094075;28;988;-38
2022/06/08 13:01:44;;;;;;;;;;;28.40;43.60;;;;;;5093811;28;1906;-38
2022/06/08 13:04:11;;;;;;;;;;;28.40;43.40;;;;;;5094337;28;1031;-38
2022/06/08 13:06:38;;;;;;;;;;;28.50;43.20;;;;;;5092990;28;944;-38
2022/06/08 13:09:05;;;;;;;;;;;28.40;44.50;;;;;;5093543;28;961;-38
2022/06/08 13:11:33;;;;;;;;;;;28.50;43.20;;;;;;5093950;28;1016;-38
2022/06/08 13:13:59;;;;;;;;;;;28.50;43.30;;;;;;5094564;28;1043;-38
2022/06/08 13:16:28;;;;;;;;;;;28.30;43.50;;;;;;5095036;28;880;-38
2022/06/08 13:18:55;;;;;;;;;;;28.40;43.40;;;;;;5094328;28;877;-38
2022/06/08 13:21:23;;;;;;;;;;;28.50;43.40;;;;;;5093747;28;1036;-38
2022/06/08 13:23:50;;;;;;;;;;;28.50;43.30;;;;;;5094306;28;1910;-38
2022/06/08 13:26:19;;;;;;;;;;;28.50;43.40;;;;;;5094929;28;1015;-38
2022/06/08 13:28:47;;;;;;;;;;;28.50;43.20;;;;;;5094608;28;958;-38
2022/06/08 13:31:14;;;;;;;;;;;28.50;43.20;;;;;;5092893;28;865;-38
2022/06/08 13:34:00;;;;;;;;;;;28.50;43.00;;;;;;5093883;28;1537;-38
2022/06/08 13:36:29;;;;;;;;;;;28.60;43.20;;;;;;5093858;28;994;-38
2022/06/08 13:38:59;;;;;;;;;;;28.50;43.20;;;;;;5093464;28;1006;-38
2022/06/08 13:41:26;;;;;;;;;;;28.40;43.30;;;;;;5094224;28;992;-38
2022/06/08 13:43:54;;;;;;;;;;;28.40;43.30;;;;;;5094060;28;1906;-38
2022/06/08 13:46:23;;;;;;;;;;;28.50;43.10;;;;;;5094158;28;948;-39
2022/06/08 13:48:50;;;;;;;;;;;28.30;43.50;;;;;;5094085;28;1006;-38
2022/06/08 13:51:17;;;;;;;;;;;28.50;43.40;;;;;;5093678;28;980;-39
2022/06/08 13:53:44;;;;;;;;;;;28.60;43.10;;;;;;5093698;28;1084;-37
2022/06/08 13:56:11;;;;;;;;;;;28.50;43.00;;;;;;5092509;28;995;-38
2022/06/08 13:58:38;;;;;;;;;;;28.40;43.40;;;;;;5093534;28;1051;-38
2022/06/08 14:01:14;;;;;;;;;;;28.50;43.20;;;;;;5093486;28;952;-38
2022/06/08 14:03:41;;;;;;;;;;;28.50;43.30;;;;;;5093104;28;1918;-38
2022/06/08 14:14:37;;;;;;;;;;;28.40;43.30;;;;;;5011223;28;1364;-38
2022/06/08 14:17:06;;;;;;;;;;;28.40;43.30;;;;;;5011117;28;932;-39
2022/06/08 14:19:33;;;;;;;;;;;28.40;43.40;;;;;;5046257;28;963;-39
2022/06/08 14:22:01;;;;;;;;;;;28.50;43.40;;;;;;5093281;28;924;-38
2022/06/08 14:24:29;;;;;;;;;;;28.50;43.20;;;;;;5092893;28;988;-38
2022/06/08 14:26:57;;;;;;;;;;;28.40;43.20;;;;;;5093709;28;989;-39
2022/06/08 14:29:24;;;;;;;;;;;28.40;43.40;;;;;;5092840;28;908;-39
2022/06/08 14:31:52;;;;;;;;;;;28.40;43.40;;;;;;5092280;28;1029;-39
2022/06/08 14:34:22;;;;;;;;;;;28.30;43.40;;;;;;5093205;28;988;-39
2022/06/08 14:36:50;;;;;;;;;;;28.30;43.60;;;;;;5093034;28;916;-38
2022/06/08 14:39:18;;;;;;;;;;;28.30;43.70;;;;;;5093637;28;877;-39
2022/06/08 14:41:46;;;;;;;;;;;28.30;43.70;;;;;;5093141;28;928;-39
2022/06/08 14:44:15;;;;;;;;;;;28.20;43.90;;;;;;5093023;28;2037;-39
2022/06/08 14:46:43;;;;;;;;;;;28.20;43.80;;;;;;5093689;28;936;-39
2022/06/08 14:49:11;;;;;;;;;;;28.20;43.90;;;;;;5093247;28;927;-39
2022/06/08 14:51:40;;;;;;;;;;;28.20;43.80;;;;;;5092410;28;1005;-39
2022/06/08 14:54:06;;;;;;;;;;;28.10;43.90;;;;;;5093137;28;943;-38
2022/06/08 14:56:36;;;;;;;;;;;28.10;43.90;;;;;;5092674;28;971;-39
2022/06/08 14:59:11;;;;;;;;;;;28.20;43.90;;;;;;5094084;28;984;-39
2022/06/08 15:01:38;;;;;;;;;;;28.10;43.90;;;;;;5092177;28;917;-38
2022/06/08 15:04:04;;;;;;;;;;;28.20;43.80;;;;;;5092059;28;1906;-39
2022/06/08 15:06:32;;;;;;;;;;;28.20;43.80;;;;;;5092241;28;884;-39
2022/06/08 15:09:00;;;;;;;;;;;28.30;43.70;;;;;;5090901;28;1003;-39
2022/06/08 15:14:16;;;;;;;;;;;28.40;43.40;;;;;;5092085;28;1050;-39
2022/06/08 15:16:43;;;;;;;;;;;28.40;43.30;;;;;;5093557;28;920;-39